Time;durP1;ratioP1;P1;durP2;ratioP2;P2;SDS_P1;SDS_P2;PMS_P1;PMS_P2;Temp;Humidity;BMP_temperature;BMP_pressure;BME280_temperature;BME280_humidity;BME280_pressure;Samples;Min_cycle;Max_cycle;Signal;HPM_P1;HPM_P2
2023/03/05 00:01:52;;;;;;;21.42;15.73;;;9.60;77.40;;;;;;10982042;32;20385;-73
2023/03/05 00:07:55;;;;;;;22.10;15.38;;;9.50;77.60;;;;;;10977604;32;20019;-73
2023/03/05 00:13:58;;;;;;;21.58;16.77;;;9.50;77.40;;;;;;10966991;32;20060;-73
2023/03/05 00:20:01;;;;;;;21.37;16.87;;;9.50;77.40;;;;;;10986321;26;20059;-72
2023/03/05 00:26:06;;;;;;;22.83;18.52;;;9.50;77.30;;;;;;10980580;32;20045;-73
2023/03/05 00:32:08;;;;;;;21.83;17.40;;;9.40;77.30;;;;;;10980266;32;20053;-73
2023/03/05 00:38:11;;;;;;;20.20;15.07;;;9.40;77.40;;;;;;10980285;32;20015;-73
2023/03/05 00:44:31;;;;;;;23.10;15.68;;;9.20;77.40;;;;;;10979029;32;20019;-73
2023/03/05 00:50:33;;;;;;;21.80;15.48;;;9.20;77.40;;;;;;10979954;32;20022;-73
2023/03/05 00:56:35;;;;;;;23.17;18.33;;;9.10;77.50;;;;;;10979780;32;20045;-73
2023/03/05 01:02:38;;;;;;;30.80;20.90;;;9.10;77.50;;;;;;10980847;32;20022;-73
2023/03/05 01:08:40;;;;;;;37.35;28.10;;;9.10;77.30;;;;;;10980692;32;20046;-73
2023/03/05 01:14:42;;;;;;;37.15;27.70;;;9.00;77.40;;;;;;10979287;32;20041;-73
2023/03/05 01:20:44;;;;;;;47.45;33.58;;;9.00;77.30;;;;;;10979299;32;20068;-73
2023/03/05 01:26:48;;;;;;;29.17;20.05;;;9.00;77.50;;;;;;10980403;32;20026;-73
2023/03/05 01:32:50;;;;;;;41.47;29.27;;;9.00;77.40;;;;;;10980185;32;20049;-73
2023/03/05 01:38:52;;;;;;;27.20;20.02;;;8.90;78.10;;;;;;10978899;32;20046;-73
2023/03/05 01:45:00;;;;;;;36.22;25.58;;;8.90;78.40;;;;;;10985351;32;20042;-73
2023/03/05 01:51:03;;;;;;;24.30;17.95;;;8.80;78.80;;;;;;10987981;32;20037;-73
2023/03/05 01:57:14;;;;;;;38.05;29.80;;;8.50;79.30;;;;;;10973136;32;20345;-73
2023/03/05 02:03:17;;;;;;;30.75;23.27;;;8.50;79.20;;;;;;10986435;32;20019;-73
2023/03/05 02:09:22;;;;;;;31.92;22.33;;;8.50;78.90;;;;;;10986108;32;20058;-73
2023/03/05 02:15:24;;;;;;;25.52;21.08;;;8.60;78.90;;;;;;10986525;32;20026;-73
2023/03/05 02:21:35;;;;;;;28.05;21.70;;;8.60;79.00;;;;;;10970659;32;20322;-73
2023/03/05 02:27:41;;;;;;;25.48;19.60;;;8.50;79.20;;;;;;10967039;32;20344;-72
2023/03/05 02:33:44;;;;;;;23.58;18.40;;;8.40;79.30;;;;;;10984581;32;20049;-73
2023/03/05 02:39:46;;;;;;;27.92;22.05;;;8.40;79.20;;;;;;10985018;32;20045;-73
2023/03/05 02:45:48;;;;;;;37.58;26.95;;;8.40;79.10;;;;;;10967580;32;20442;-73
2023/03/05 02:51:51;;;;;;;28.27;17.98;;;8.30;79.10;;;;;;10984008;32;20023;-73
2023/03/05 02:57:53;;;;;;;26.12;17.60;;;8.20;79.00;;;;;;10983834;32;20018;-73
2023/03/05 03:03:57;;;;;;;19.75;15.23;;;8.20;79.00;;;;;;10983649;32;20010;-73
2023/03/05 03:09:59;;;;;;;17.12;13.45;;;8.00;79.20;;;;;;10969566;32;20046;-73
2023/03/05 03:16:05;;;;;;;28.67;21.00;;;8.10;79.00;;;;;;10984457;32;20023;-73
2023/03/05 03:22:09;;;;;;;26.02;19.70;;;8.10;78.90;;;;;;10981841;32;20042;-73
2023/03/05 03:28:11;;;;;;;32.83;22.95;;;8.00;78.70;;;;;;10982760;32;20061;-73
2023/03/05 03:34:15;;;;;;;32.92;25.55;;;8.10;78.90;;;;;;10965668;32;20031;-74
2023/03/05 03:40:17;;;;;;;35.92;28.83;;;8.10;79.10;;;;;;10982782;32;20015;-74
2023/03/05 03:46:19;;;;;;;40.95;33.10;;;8.10;78.90;;;;;;10969189;32;20438;-73
2023/03/05 03:52:21;;;;;;;29.48;22.42;;;8.10;78.60;;;;;;10979259;32;20034;-73
2023/03/05 03:58:23;;;;;;;41.70;31.95;;;8.00;78.80;;;;;;10981482;32;20031;-73
2023/03/05 04:04:27;;;;;;;26.25;19.40;;;8.00;79.30;;;;;;10982851;32;20018;-73
2023/03/05 04:10:29;;;;;;;28.08;21.33;;;7.90;79.20;;;;;;10979259;32;20054;-73
2023/03/05 04:16:31;;;;;;;34.33;26.85;;;7.80;79.10;;;;;;10980838;32;20015;-73
2023/03/05 04:22:33;;;;;;;25.08;19.10;;;7.80;79.40;;;;;;10976609;32;20046;-73
2023/03/05 04:29:16;;;;;;;28.77;21.45;;;7.70;79.70;;;;;;10978478;32;20027;-73
2023/03/05 04:35:18;;;;;;;28.60;22.08;;;7.70;80.30;;;;;;10980200;32;20019;-73
2023/03/05 04:41:20;;;;;;;23.12;15.25;;;7.70;80.60;;;;;;10981434;32;20396;-73
2023/03/05 04:47:22;;;;;;;19.45;13.80;;;7.70;80.80;;;;;;10976428;32;20027;-73
2023/03/05 04:53:24;;;;;;;28.73;17.62;;;7.60;80.60;;;;;;10980288;32;20046;-73
2023/03/05 04:59:26;;;;;;;26.02;21.77;;;7.50;80.40;;;;;;10953160;32;20400;-73
2023/03/05 05:05:28;;;;;;;19.65;15.75;;;7.50;80.30;;;;;;10975455;32;20019;-73
2023/03/05 05:11:30;;;;;;;18.00;12.73;;;7.60;80.00;;;;;;10965137;32;20069;-73
2023/03/05 05:17:32;;;;;;;18.10;13.48;;;7.40;80.00;;;;;;10979177;32;20041;-73
2023/03/05 05:23:35;;;;;;;14.48;10.15;;;7.40;80.00;;;;;;10983780;32;20030;-73
2023/03/05 05:29:38;;;;;;;18.15;14.70;;;7.20;79.80;;;;;;10984382;32;20027;-73
2023/03/05 05:35:39;;;;;;;15.90;11.73;;;7.20;79.90;;;;;;10982778;32;20058;-73
2023/03/05 05:41:41;;;;;;;27.37;20.30;;;7.20;79.70;;;;;;10985326;32;20026;-73
2023/03/05 05:47:43;;;;;;;21.08;17.20;;;7.20;79.60;;;;;;10984664;32;20031;-73
2023/03/05 05:53:46;;;;;;;30.55;20.73;;;7.20;79.80;;;;;;10982926;32;20060;-73
2023/03/05 05:59:48;;;;;;;20.67;14.00;;;7.30;80.00;;;;;;10986490;32;20322;-74
2023/03/05 06:05:50;;;;;;;17.75;14.00;;;7.30;80.00;;;;;;10984381;32;20055;-73
2023/03/05 06:11:52;;;;;;;14.93;10.88;;;7.20;80.10;;;;;;10959084;32;20415;-73
2023/03/05 06:17:54;;;;;;;22.17;13.30;;;7.20;79.90;;;;;;10986036;32;20029;-74
2023/03/05 06:23:57;;;;;;;16.75;11.43;;;7.20;79.80;;;;;;10982101;32;20057;-74
2023/03/05 06:29:59;;;;;;;16.15;10.63;;;7.20;79.70;;;;;;10985216;32;20345;-74
2023/03/05 06:36:06;;;;;;;15.73;9.20;;;7.20;79.80;;;;;;10967545;32;20060;-73
2023/03/05 06:42:09;;;;;;;13.32;8.35;;;7.10;79.80;;;;;;10984991;32;20022;-73
2023/03/05 06:48:11;;;;;;;13.70;7.32;;;7.10;80.10;;;;;;10970237;32;20446;-73
2023/03/05 06:54:15;;;;;;;9.70;7.05;;;7.10;80.00;;;;;;10985492;32;20096;-74
2023/03/05 07:00:17;;;;;;;12.73;9.40;;;7.10;80.10;;;;;;10980160;32;20057;-74
2023/03/05 07:06:21;;;;;;;10.88;8.20;;;7.10;80.20;;;;;;10984733;32;20517;-74
2023/03/05 07:12:23;;;;;;;10.77;7.28;;;7.20;80.20;;;;;;10983487;32;20385;-74
2023/03/05 07:18:25;;;;;;;10.00;7.10;;;7.40;80.10;;;;;;10980326;32;20023;-74
2023/03/05 07:24:28;;;;;;;15.50;10.15;;;7.50;80.10;;;;;;10982569;32;20023;-71
2023/03/05 07:30:34;;;;;;;10.77;6.78;;;7.60;80.10;;;;;;10978551;32;20041;-71
2023/03/05 07:36:36;;;;;;;11.75;8.13;;;7.60;80.10;;;;;;10982290;32;20325;-72
2023/03/05 07:42:38;;;;;;;14.75;11.75;;;7.70;80.20;;;;;;10979703;32;20050;-71
2023/03/05 07:48:50;;;;;;;24.70;13.40;;;7.90;80.20;;;;;;10980718;32;20049;-71
2023/03/05 07:54:54;;;;;;;15.82;10.70;;;7.90;80.40;;;;;;10964080;32;20014;-71
2023/03/05 08:00:56;;;;;;;14.25;8.63;;;8.10;80.50;;;;;;10963431;32;20038;-71
2023/03/05 08:06:59;;;;;;;14.73;8.93;;;8.20;80.40;;;;;;10980255;32;20046;-72
2023/03/05 08:13:01;;;;;;;13.50;8.30;;;8.20;80.10;;;;;;10982256;32;20045;-71
2023/03/05 08:19:04;;;;;;;15.90;10.25;;;8.30;80.30;;;;;;10967319;32;20014;-71
2023/03/05 08:25:07;;;;;;;15.80;11.93;;;8.40;79.80;;;;;;10767567;27;7025313;-71
2023/03/05 08:31:13;;;;;;;8.43;6.15;;;8.50;79.30;;;;;;10967328;32;20039;-71
2023/03/05 08:37:15;;;;;;;15.00;10.02;;;8.60;79.40;;;;;;10976532;32;20018;-71
2023/03/05 08:43:18;;;;;;;16.42;8.68;;;8.70;79.40;;;;;;10975771;32;20014;-71
2023/03/05 08:49:21;;;;;;;11.32;6.35;;;8.70;79.30;;;;;;10979512;32;20053;-71
2023/03/05 08:55:23;;;;;;;15.68;8.95;;;8.80;79.40;;;;;;10979648;32;20405;-71
2023/03/05 09:01:26;;;;;;;18.15;9.35;;;9.00;79.10;;;;;;10980138;32;20337;-71
2023/03/05 09:07:28;;;;;;;18.50;11.30;;;9.10;78.60;;;;;;10977604;32;20049;-71
2023/03/05 09:13:31;;;;;;;19.48;13.43;;;9.20;78.40;;;;;;10979676;32;20023;-71
2023/03/05 09:19:33;;;;;;;25.00;12.70;;;9.20;77.90;;;;;;10979673;32;20015;-72
2023/03/05 09:25:35;;;;;;;20.70;10.50;;;9.40;77.70;;;;;;10940424;32;20377;-72
2023/03/05 09:31:38;;;;;;;29.73;17.48;;;9.50;77.20;;;;;;10940526;32;20420;-72
2023/03/05 09:37:40;;;;;;;21.42;11.82;;;9.60;77.50;;;;;;10940029;32;20023;-72
2023/03/05 09:44:00;;;;;;;20.17;12.02;;;9.70;76.80;;;;;;10941811;32;20015;-72
2023/03/05 09:50:42;;;;;;;35.05;21.62;;;9.80;76.30;;;;;;10940784;32;20046;-72
2023/03/05 09:56:49;;;;;;;29.17;19.50;;;10.00;75.80;;;;;;10940084;32;20427;-72
2023/03/05 10:02:57;;;;;;;27.17;18.75;;;10.10;75.60;;;;;;10940204;32;20089;-72
2023/03/05 10:09:33;;;;;;;24.77;16.55;;;10.20;75.70;;;;;;10942862;32;20031;-72
2023/03/05 10:15:38;;;;;;;29.17;18.02;;;10.30;75.30;;;;;;10948024;32;20436;-72
2023/03/05 10:22:21;;;;;;;26.40;20.17;;;10.50;74.70;;;;;;10956413;32;20018;-72
2023/03/05 10:28:51;;;;;;;22.17;16.95;;;10.70;75.00;;;;;;10868693;32;20050;-72
2023/03/05 10:35:10;;;;;;;23.48;18.77;;;10.80;75.10;;;;;;10867947;32;20027;-71
2023/03/05 10:41:52;;;;;;;24.45;16.62;;;11.10;74.70;;;;;;10867206;32;20062;-71
2023/03/05 10:48:21;;;;;;;33.28;23.77;;;11.40;74.30;;;;;;10865686;32;20020;-73
2023/03/05 10:54:30;;;;;;;33.85;27.35;;;11.60;74.00;;;;;;10866386;32;20043;-72
2023/03/05 11:00:33;;;;;;;23.87;16.30;;;11.70;74.20;;;;;;10866398;32;20062;-72
2023/03/05 11:06:37;;;;;;;21.48;15.10;;;11.80;73.80;;;;;;10942595;32;20345;-72
2023/03/05 11:12:39;;;;;;;26.02;16.12;;;12.10;73.60;;;;;;10942295;32;20031;-72
2023/03/05 11:18:43;;;;;;;28.30;19.55;;;12.50;73.10;;;;;;10944975;32;20055;-72
2023/03/05 11:25:03;;;;;;;29.00;18.42;;;12.80;73.50;;;;;;10943843;32;20349;-72
2023/03/05 11:31:14;;;;;;;45.00;37.28;;;13.10;72.60;;;;;;10941482;32;20026;-72
2023/03/05 11:37:30;;;;;;;38.90;30.27;;;13.40;71.50;;;;;;10943753;32;20030;-72
2023/03/05 11:43:36;;;;;;;29.12;20.37;;;13.50;70.90;;;;;;10930882;32;20065;-72
2023/03/05 11:49:44;;;;;;;32.28;25.83;;;13.70;70.30;;;;;;10944478;32;20011;-72
2023/03/05 11:55:54;;;;;;;26.27;19.25;;;14.00;69.60;;;;;;10940598;32;20031;-72
2023/03/05 12:01:57;;;;;;;33.28;22.95;;;14.20;69.00;;;;;;10944614;32;20038;-72
2023/03/05 12:08:01;;;;;;;42.28;36.95;;;14.40;67.60;;;;;;10929798;32;20044;-74
2023/03/05 12:14:20;;;;;;;27.30;21.80;;;14.50;67.80;;;;;;10943190;32;20023;-74
2023/03/05 12:20:40;;;;;;;41.30;31.23;;;14.50;67.80;;;;;;10929177;32;20030;-74
2023/03/05 12:27:04;;;;;;;30.05;22.90;;;14.60;67.70;;;;;;10928513;32;20073;-74
2023/03/05 12:33:40;;;;;;;32.80;27.58;;;14.60;66.40;;;;;;10940618;32;20049;-74
2023/03/05 12:39:51;;;;;;;43.72;38.08;;;14.60;67.30;;;;;;10791016;32;20348;-74
2023/03/05 12:46:23;;;;;;;49.30;42.33;;;14.60;66.60;;;;;;10761163;33;20390;-74
2023/03/05 12:52:29;;;;;;;24.17;20.15;;;14.80;66.70;;;;;;10788731;32;20391;-74
2023/03/05 12:58:38;;;;;;;33.30;26.42;;;14.80;66.10;;;;;;10786229;33;20187;-74
2023/03/05 13:04:43;;;;;;;;;;;14.90;65.60;;;;;;10790433;33;20012;-74
2023/03/05 13:11:01;;;;;;;28.10;21.90;;;14.80;64.30;;;;;;10790136;33;19923;-74
2023/03/05 13:17:23;;;;;;;24.97;19.17;;;14.80;63.80;;;;;;10924817;32;20015;-73
2023/03/05 13:23:26;;;;;;;41.90;32.95;;;15.10;63.40;;;;;;10936582;32;20027;-74
2023/03/05 13:29:30;;;;;;;27.10;16.85;;;15.20;64.10;;;;;;10927954;32;20031;-74
2023/03/05 13:35:32;;;;;;;30.52;16.40;;;15.10;61.50;;;;;;10938650;32;20050;-73
2023/03/05 13:41:34;;;;;;;23.87;15.80;;;15.20;61.60;;;;;;10946500;32;20019;-74
2023/03/05 13:47:37;;;;;;;33.60;27.25;;;15.40;61.00;;;;;;10944767;32;20046;-73
2023/03/05 13:53:39;;;;;;;53.38;45.15;;;15.60;60.80;;;;;;10948325;32;20026;-73
2023/03/05 13:59:52;;;;;;;38.55;27.92;;;15.60;61.20;;;;;;10948064;32;20360;-73
2023/03/05 14:05:54;;;;;;;41.20;34.67;;;15.40;62.70;;;;;;10948667;32;20016;-72
2023/03/05 14:12:02;;;;;;;36.70;25.67;;;15.20;63.30;;;;;;10948411;32;20105;-72
2023/03/05 14:18:10;;;;;;;35.88;25.30;;;15.30;63.10;;;;;;10933910;32;20034;-73
2023/03/05 14:24:27;;;;;;;45.17;33.93;;;15.40;62.60;;;;;;10946303;32;20023;-73
2023/03/05 14:30:29;;;;;;;26.85;21.27;;;15.50;63.60;;;;;;10937881;32;20054;-73
2023/03/05 14:36:33;;;;;;;43.08;35.80;;;15.50;62.90;;;;;;10954491;32;20081;-73
2023/03/05 14:42:35;;;;;;;25.92;20.15;;;15.70;62.90;;;;;;10981102;32;20027;-73
2023/03/05 14:48:37;;;;;;;56.08;45.00;;;15.70;62.30;;;;;;10983950;32;20019;-73
2023/03/05 14:54:40;;;;;;;54.85;48.90;;;15.80;63.00;;;;;;10984000;32;20053;-73
2023/03/05 15:00:43;;;;;;;49.42;42.25;;;15.70;65.90;;;;;;10981400;32;20022;-73
2023/03/05 15:06:49;;;;;;;49.05;43.47;;;15.70;64.50;;;;;;10983581;32;20030;-73
2023/03/05 15:12:52;;;;;;;49.17;37.17;;;15.80;65.70;;;;;;10982370;32;20084;-73
2023/03/05 15:18:54;;;;;;;47.72;42.50;;;15.90;65.50;;;;;;10980262;32;20023;-71
2023/03/05 15:24:56;;;;;;;43.85;33.55;;;16.00;66.00;;;;;;10982762;32;20340;-71
2023/03/05 15:30:59;;;;;;;48.97;38.58;;;16.20;65.60;;;;;;10982500;32;20341;-71
2023/03/05 15:37:02;;;;;;;48.95;39.45;;;16.20;65.70;;;;;;10969536;32;20088;-71
2023/03/05 15:43:04;;;;;;;53.40;47.67;;;16.40;64.40;;;;;;10979627;32;20023;-71
2023/03/05 15:49:06;;;;;;;45.40;37.20;;;16.70;64.00;;;;;;10968095;32;20030;-71
2023/03/05 15:55:09;;;;;;;39.47;32.33;;;16.60;65.20;;;;;;10981734;32;20022;-71
2023/03/05 16:01:12;;;;;;;51.47;45.85;;;16.60;65.30;;;;;;10981229;32;20077;-71
2023/03/05 16:07:14;;;;;;;53.97;40.97;;;16.40;65.40;;;;;;10983114;32;20019;-71
2023/03/05 16:13:17;;;;;;;44.72;37.20;;;16.00;65.90;;;;;;10980045;32;20105;-72
2023/03/05 16:19:21;;;;;;;40.50;32.75;;;15.50;66.00;;;;;;10976697;32;20432;-72
2023/03/05 16:25:23;;;;;;;35.10;27.50;;;14.80;66.30;;;;;;10932153;27;20327;-72
2023/03/05 16:31:40;;;;;;;38.10;31.67;;;14.30;67.10;;;;;;10928976;32;20061;-71
2023/03/05 16:37:42;;;;;;;46.00;35.15;;;14.00;67.30;;;;;;10928362;32;20084;-71
2023/03/05 16:43:45;;;;;;;40.72;32.33;;;13.90;67.90;;;;;;10915981;32;20065;-71
2023/03/05 16:49:47;;;;;;;43.65;34.25;;;13.70;68.50;;;;;;10940791;32;20022;-71
2023/03/05 16:55:49;;;;;;;50.03;37.65;;;13.30;69.10;;;;;;10942194;32;20047;-71
2023/03/05 17:01:51;;;;;;;37.45;27.67;;;13.10;70.00;;;;;;10938714;32;20405;-71
2023/03/05 17:07:53;;;;;;;43.97;32.15;;;12.90;70.20;;;;;;10942339;32;20046;-71
2023/03/05 17:13:55;;;;;;;37.00;28.90;;;12.70;70.80;;;;;;10928274;32;20023;-72
2023/03/05 17:19:58;;;;;;;56.22;42.60;;;12.60;70.90;;;;;;10942194;32;20020;-71
2023/03/05 17:26:03;;;;;;;50.58;35.78;;;12.50;71.20;;;;;;10915591;32;20065;-71
2023/03/05 17:32:06;;;;;;;64.32;49.20;;;12.30;71.80;;;;;;10915185;32;20034;-71
2023/03/05 17:38:09;;;;;;;75.12;54.15;;;12.20;72.20;;;;;;10928202;32;20053;-71
2023/03/05 17:44:12;;;;;;;48.65;38.50;;;12.20;72.90;;;;;;10927336;32;20038;-71
2023/03/05 17:50:14;;;;;;;49.90;36.65;;;12.00;73.00;;;;;;10940943;32;20023;-71
2023/03/05 17:56:19;;;;;;;48.80;36.88;;;11.90;73.20;;;;;;10942275;32;20042;-71
2023/03/05 18:02:21;;;;;;;58.50;47.88;;;11.90;73.20;;;;;;10940982;32;20042;-71
2023/03/05 18:08:23;;;;;;;47.58;39.42;;;11.80;73.50;;;;;;10939054;32;20019;-74
2023/03/05 18:14:25;;;;;;;53.63;37.42;;;11.80;73.80;;;;;;10936723;32;20026;-73
2023/03/05 18:20:29;;;;;;;48.03;37.88;;;11.70;74.10;;;;;;10940594;32;20046;-73
2023/03/05 18:26:31;;;;;;;55.15;39.13;;;11.70;74.20;;;;;;10944716;32;20072;-74
2023/03/05 18:32:33;;;;;;;34.80;25.62;;;11.70;74.40;;;;;;10948383;32;20298;-73
2023/03/05 18:38:37;;;;;;;38.33;26.73;;;11.60;74.80;;;;;;10948273;32;20034;-73
2023/03/05 18:44:40;;;;;;;38.53;29.98;;;11.50;75.20;;;;;;10947441;32;20333;-73
2023/03/05 18:50:42;;;;;;;28.42;19.95;;;11.40;75.20;;;;;;10945179;32;20055;-73
2023/03/05 18:56:44;;;;;;;31.60;17.27;;;11.40;75.30;;;;;;10946343;32;20035;-73
2023/03/05 19:02:47;;;;;;;27.37;18.25;;;11.50;75.20;;;;;;10947449;32;20041;-73
2023/03/05 19:09:40;;;;;;;20.95;12.43;;;11.50;75.20;;;;;;10942714;32;20045;-74
2023/03/05 19:15:51;;;;;;;15.50;10.95;;;11.50;75.20;;;;;;10757071;33;20036;-74
2023/03/05 19:21:58;;;;;;;15.45;9.90;;;11.50;75.30;;;;;;10754649;33;20374;-74
2023/03/05 19:28:00;;;;;;;17.50;11.32;;;11.50;75.30;;;;;;10756268;33;20009;-74
2023/03/05 19:34:02;;;;;;;15.88;10.55;;;11.40;75.30;;;;;;10755892;33;20063;-74
2023/03/05 19:40:05;;;;;;;14.10;8.43;;;11.40;75.40;;;;;;10756167;33;20021;-74
2023/03/05 19:46:07;;;;;;;18.45;10.93;;;11.30;75.50;;;;;;10752043;33;20051;-74
2023/03/05 19:52:10;;;;;;;16.65;10.80;;;11.30;75.60;;;;;;10875798;32;20023;-74
2023/03/05 19:58:12;;;;;;;22.27;16.60;;;11.20;76.10;;;;;;10907723;32;20042;-74
2023/03/05 20:04:20;;;;;;;18.92;11.88;;;11.20;76.40;;;;;;10876961;32;20057;-74
2023/03/05 20:10:22;;;;;;;14.35;9.25;;;11.20;76.40;;;;;;10906873;32;20334;-74
2023/03/05 20:16:28;;;;;;;18.02;11.65;;;11.20;76.30;;;;;;10902136;32;20027;-74
2023/03/05 20:22:30;;;;;;;20.02;11.52;;;11.20;76.40;;;;;;10923920;32;20337;-74
2023/03/05 20:28:33;;;;;;;21.55;9.60;;;11.20;76.40;;;;;;10941372;32;20054;-74
2023/03/05 20:34:35;;;;;;;15.80;10.73;;;11.20;76.40;;;;;;10942857;32;20352;-73
2023/03/05 20:40:37;;;;;;;19.98;14.27;;;11.20;76.30;;;;;;10929240;32;20045;-73
2023/03/05 20:47:11;;;;;;;33.35;24.27;;;11.20;76.60;;;;;;10941346;32;20031;-73
2023/03/05 20:53:28;;;;;;;25.73;18.83;;;11.10;77.10;;;;;;10928138;32;20073;-73
2023/03/05 20:59:30;;;;;;;27.17;21.58;;;11.00;77.80;;;;;;10938657;32;20014;-73
2023/03/05 21:05:34;;;;;;;33.60;22.73;;;10.90;78.00;;;;;;10929673;32;20062;-73
2023/03/05 21:11:36;;;;;;;26.35;16.55;;;10.70;78.40;;;;;;10943127;32;20385;-71
2023/03/05 21:17:40;;;;;;;19.85;13.98;;;10.60;79.20;;;;;;10941709;32;20023;-71
2023/03/05 21:23:43;;;;;;;29.65;21.02;;;10.50;79.00;;;;;;10942007;32;20050;-71
2023/03/05 21:29:45;;;;;;;23.65;16.05;;;10.50;79.00;;;;;;10942208;32;20295;-71
2023/03/05 21:35:51;;;;;;;37.45;23.87;;;10.30;79.30;;;;;;10928606;32;20045;-71
2023/03/05 21:41:53;;;;;;;43.92;33.53;;;10.30;79.30;;;;;;10939324;32;20482;-71
2023/03/05 21:47:57;;;;;;;38.17;25.88;;;10.20;79.40;;;;;;10942451;32;20042;-71
2023/03/05 21:54:00;;;;;;;47.75;33.28;;;10.10;80.00;;;;;;10939933;32;20053;-71
2023/03/05 22:00:04;;;;;;;24.70;20.45;;;10.20;79.80;;;;;;10943393;32;20023;-71
2023/03/05 22:06:15;;;;;;;37.83;28.85;;;10.00;80.10;;;;;;10946377;32;20034;-71
2023/03/05 22:12:55;;;;;;;36.47;24.00;;;10.00;80.40;;;;;;10949139;32;20097;-71
2023/03/05 22:19:06;;;;;;;28.58;20.45;;;9.90;80.70;;;;;;10948360;32;20015;-71
2023/03/05 22:25:10;;;;;;;23.55;16.67;;;9.90;80.70;;;;;;10947734;32;20015;-72
2023/03/05 22:31:20;;;;;;;21.17;13.25;;;10.10;80.40;;;;;;10933953;32;20019;-71
2023/03/05 22:37:22;;;;;;;21.90;13.70;;;10.20;80.30;;;;;;10933301;32;20065;-71
2023/03/05 22:43:24;;;;;;;27.23;21.23;;;10.20;80.00;;;;;;10948099;32;20053;-71
2023/03/05 22:49:27;;;;;;;16.37;11.18;;;10.20;80.00;;;;;;10944244;32;20023;-71
2023/03/05 22:55:29;;;;;;;36.13;21.75;;;10.20;79.90;;;;;;10947621;32;20045;-72
2023/03/05 23:01:31;;;;;;;25.92;18.12;;;10.20;79.80;;;;;;10946490;32;20046;-71
2023/03/05 23:07:35;;;;;;;31.12;23.33;;;10.20;80.00;;;;;;10946164;32;20047;-71
2023/03/05 23:13:39;;;;;;;25.75;19.60;;;10.20;80.30;;;;;;10931636;32;20035;-71
2023/03/05 23:19:41;;;;;;;33.00;23.62;;;10.20;80.10;;;;;;10945709;32;20056;-71
2023/03/05 23:25:43;;;;;;;29.95;18.73;;;10.20;80.00;;;;;;10930401;32;20388;-71
2023/03/05 23:31:45;;;;;;;19.90;13.05;;;10.30;80.00;;;;;;10932984;32;20042;-71
2023/03/05 23:37:48;;;;;;;24.80;17.37;;;10.20;79.80;;;;;;10944817;32;20027;-71
2023/03/05 23:43:50;;;;;;;20.35;16.37;;;10.30;79.80;;;;;;10932656;32;20043;-71
2023/03/05 23:49:53;;;;;;;27.75;19.25;;;10.20;80.20;;;;;;10944506;32;20023;-71
2023/03/05 23:55:55;;;;;;;22.35;16.62;;;10.20;80.10;;;;;;10944857;32;20015;-71
